createdAt,value
2016-08-25T00:00:17.839Z,86.25
2016-08-25T00:01:17.842Z,86.83
2016-08-25T00:02:19.258Z,86.45
2016-08-25T00:04:18.761Z,86.45
2016-08-25T00:05:17.827Z,86.5
2016-08-25T00:06:18.609Z,86.83
2016-08-25T00:07:17.824Z,86.69
2016-08-25T00:08:17.819Z,86.5
2016-08-25T00:09:17.818Z,86.5
2016-08-25T00:10:17.818Z,87.27
2016-08-25T00:11:17.821Z,87.27
2016-08-25T00:12:17.807Z,86.88
2016-08-25T00:13:17.804Z,86.79
2016-08-25T00:14:17.804Z,86.88
2016-08-25T00:15:17.804Z,86.88
2016-08-25T00:16:17.798Z,87.17
2016-08-25T00:17:17.794Z,87.46
2016-08-25T00:18:17.794Z,87.27
2016-08-25T00:19:17.792Z,87.27
2016-08-25T00:20:17.784Z,87.46
2016-08-25T00:21:17.787Z,87.17
2016-08-25T00:22:17.784Z,87.27
2016-08-25T00:23:17.778Z,87.27
2016-08-25T00:24:17.774Z,87.17
2016-08-25T00:25:17.787Z,87.65
2016-08-25T00:26:17.776Z,87.46
2016-08-25T00:27:17.765Z,87.55
2016-08-25T00:28:17.764Z,87.27
2016-08-25T00:29:17.759Z,87.55
2016-08-25T00:30:32.675Z,88.03
2016-08-25T00:31:17.756Z,87.94
2016-08-25T00:33:17.753Z,87.84
2016-08-25T00:34:17.753Z,87.55
2016-08-25T00:35:18.299Z,87.74
2016-08-25T00:36:17.746Z,88.13
2016-08-25T00:37:17.744Z,88.13
2016-08-25T00:38:17.731Z,88.03
2016-08-25T00:39:17.738Z,88.03
2016-08-25T00:40:18.432Z,88.42
2016-08-25T00:41:17.781Z,88.7
2016-08-25T00:42:18.526Z,88.28
2016-08-25T00:43:32.636Z,87.99
2016-08-25T00:44:18.175Z,88.03
2016-08-25T00:45:17.713Z,87.8
2016-08-25T00:46:17.712Z,88.37
2016-08-25T00:47:17.710Z,88.23
2016-08-25T00:48:17.703Z,87.99
2016-08-25T00:49:17.701Z,88.09
2016-08-25T00:50:17.699Z,88.28
2016-08-25T00:51:17.696Z,88.18
2016-08-25T00:52:17.695Z,88.18
2016-08-25T00:53:17.690Z,88.47
2016-08-25T00:54:17.691Z,88.37
2016-08-25T00:55:17.688Z,88.56
2016-08-25T00:56:17.687Z,88.66
2016-08-25T00:57:17.681Z,88.28
2016-08-25T00:58:17.676Z,89.04
2016-08-25T00:59:17.674Z,88.76
2016-08-25T01:00:17.682Z,88.56
2016-08-25T01:01:17.670Z,89.14
2016-08-25T01:02:17.664Z,89.04
2016-08-25T01:03:17.665Z,88.85
2016-08-25T01:04:17.657Z,88.95
2016-08-25T01:05:17.653Z,88.85
2016-08-25T01:06:17.755Z,88.76
2016-08-25T01:07:17.649Z,88.76
2016-08-25T01:08:17.652Z,88.76
2016-08-25T01:09:17.649Z,89.23
2016-08-25T01:10:17.642Z,88.85
2016-08-25T01:11:18.455Z,89.04
2016-08-25T01:13:18.629Z,89.43
2016-08-25T01:14:17.843Z,89.23
2016-08-25T01:15:17.633Z,89.43
2016-08-25T01:16:17.620Z,89.23
2016-08-25T01:17:17.623Z,89.33
2016-08-25T01:18:17.614Z,89.33
2016-08-25T01:19:17.615Z,89.33
2016-08-25T01:20:17.614Z,89.62
2016-08-25T01:21:18.926Z,89.43
2016-08-25T01:22:17.605Z,89.33
2016-08-25T01:23:17.603Z,89.33
2016-08-25T01:24:17.601Z,90.29
2016-08-25T01:25:18.084Z,90.09
2016-08-25T01:26:17.693Z,90.19
2016-08-25T01:27:17.591Z,89.9
2016-08-25T01:28:17.590Z,90
2016-08-25T01:29:17.586Z,89.9
2016-08-25T01:30:17.581Z,89.62
2016-08-25T01:31:17.581Z,89.81
2016-08-25T01:32:17.571Z,89.81
2016-08-25T01:33:17.569Z,89.81
2016-08-25T01:34:17.565Z,89.9
2016-08-25T01:35:17.562Z,89.81
2016-08-25T01:36:17.562Z,90.09
2016-08-25T01:37:17.560Z,89.81
2016-08-25T01:38:17.557Z,90
2016-08-25T01:39:17.553Z,89.62
2016-08-25T01:40:17.550Z,89.81
2016-08-25T01:41:17.546Z,90
2016-08-25T01:42:17.543Z,90.09
2016-08-25T01:43:17.539Z,89.9
2016-08-25T01:44:17.540Z,90
2016-08-25T01:45:17.530Z,89.95
2016-08-25T01:46:17.529Z,90.15
2016-08-25T01:47:17.536Z,90.34
2016-08-25T01:48:17.527Z,90.44
2016-08-25T01:49:17.523Z,90.39
2016-08-25T01:50:17.520Z,90.39
2016-08-25T01:51:17.515Z,90.24
2016-08-25T01:52:18.108Z,90.44
2016-08-25T01:53:17.506Z,89.95
2016-08-25T01:54:17.505Z,90.05
2016-08-25T01:55:17.502Z,90.63
2016-08-25T01:56:17.498Z,90.63
2016-08-25T01:57:17.496Z,90.72
2016-08-25T01:58:18.343Z,90.63
2016-08-25T01:59:17.991Z,90.72
2016-08-25T02:00:17.486Z,90.63
2016-08-25T02:01:17.934Z,90.34
2016-08-25T02:02:17.627Z,90.44
2016-08-25T02:03:17.476Z,90.82
2016-08-25T02:04:17.469Z,91.11
2016-08-25T02:05:17.470Z,91.3
2016-08-25T02:06:17.465Z,91.49
2016-08-25T02:07:17.461Z,91.11
2016-08-25T02:08:17.455Z,90.82
2016-08-25T02:09:17.455Z,90.82
2016-08-25T02:10:17.451Z,90.82
2016-08-25T02:11:17.444Z,90.91
2016-08-25T02:12:17.444Z,90.82
2016-08-25T02:13:17.444Z,91.3
2016-08-25T02:14:17.468Z,90.91
2016-08-25T02:15:17.430Z,91.39
2016-08-25T02:16:17.439Z,91.39
2016-08-25T02:17:17.429Z,91.01
2016-08-25T02:18:17.422Z,91.2
2016-08-25T02:19:17.420Z,91.77
2016-08-25T02:20:17.417Z,91.49
2016-08-25T02:21:17.413Z,91.49
2016-08-25T02:22:17.410Z,91.49
2016-08-25T02:23:17.410Z,91.58
2016-08-25T02:24:17.406Z,91.39
2016-08-25T02:25:17.404Z,91.58
2016-08-25T02:26:17.400Z,91.39
2016-08-25T02:27:17.391Z,91.39
2016-08-25T02:28:17.388Z,91.35
2016-08-25T02:29:17.383Z,91.92
2016-08-25T02:30:18.667Z,92.25
2016-08-25T02:31:17.383Z,91.44
2016-08-25T02:32:17.375Z,92.21
2016-08-25T02:33:17.974Z,92.16
2016-08-25T02:34:17.368Z,92.35
2016-08-25T02:35:17.378Z,92.06
2016-08-25T02:36:17.362Z,91.92
2016-08-25T02:37:17.358Z,91.73
2016-08-25T02:38:18.146Z,91.73
2016-08-25T02:39:17.351Z,91.92
2016-08-25T02:40:17.994Z,91.87
2016-08-25T02:41:17.869Z,91.44
2016-08-25T02:42:17.340Z,92.49
2016-08-25T02:43:17.806Z,92.49
2016-08-25T02:44:17.822Z,92.3
2016-08-25T02:45:17.329Z,92.4
2016-08-25T02:46:17.327Z,92.3
2016-08-25T02:47:17.323Z,92.3
2016-08-25T02:48:17.317Z,92.49
2016-08-25T02:49:17.314Z,92.4
2016-08-25T02:50:17.310Z,92.4
2016-08-25T02:51:17.309Z,92.59
2016-08-25T02:52:17.303Z,93.07
2016-08-25T02:53:17.298Z,92.59
2016-08-25T02:54:17.298Z,92.4
2016-08-25T02:55:17.298Z,92.49
2016-08-25T02:56:17.293Z,92.4
2016-08-25T02:57:17.288Z,92.69
2016-08-25T02:58:17.285Z,92.88
2016-08-25T02:59:17.279Z,92.78
2016-08-25T03:00:17.276Z,92.78
2016-08-25T03:01:17.275Z,92.59
2016-08-25T03:02:17.267Z,92.4
2016-08-25T03:03:17.269Z,92.59
2016-08-25T03:04:17.265Z,92.59
2016-08-25T03:05:17.259Z,92.97
2016-08-25T03:06:17.305Z,92.69
2016-08-25T03:07:17.254Z,93.16
2016-08-25T03:08:17.244Z,92.88
2016-08-25T03:09:17.797Z,93.35
2016-08-25T03:10:17.251Z,93.35
2016-08-25T03:11:17.236Z,93.16
2016-08-25T03:12:17.229Z,93.07
2016-08-25T03:13:17.234Z,93.26
2016-08-25T03:14:17.229Z,93.45
2016-08-25T03:15:17.220Z,93.64
2016-08-25T03:16:17.971Z,93.64
2016-08-25T03:17:17.966Z,93.84
2016-08-25T03:18:17.306Z,93.74
2016-08-25T03:19:17.212Z,93.74
2016-08-25T03:20:17.199Z,93.55
2016-08-25T03:21:17.646Z,93.74
2016-08-25T03:22:17.191Z,93.74
2016-08-25T03:23:17.190Z,93.55
2016-08-25T03:24:17.188Z,93.64
2016-08-25T03:25:17.184Z,93.55
2016-08-25T03:26:17.182Z,93.84
2016-08-25T03:27:17.172Z,94.12
2016-08-25T03:28:17.169Z,93.79
2016-08-25T03:29:17.171Z,93.98
2016-08-25T03:30:17.165Z,94.17
2016-08-25T03:31:17.159Z,94.21
2016-08-25T03:32:17.157Z,94.31
2016-08-25T03:33:17.153Z,94.07
2016-08-25T03:34:17.149Z,94.26
2016-08-25T03:35:17.147Z,94.46
2016-08-25T03:36:17.136Z,94.46
2016-08-25T03:37:17.136Z,94.46
2016-08-25T03:38:17.132Z,94.26
2016-08-25T03:39:17.129Z,94.65
2016-08-25T03:40:17.130Z,94.07
2016-08-25T03:41:17.118Z,94.46
2016-08-25T03:42:17.114Z,94.46
2016-08-25T03:43:17.118Z,94.46
2016-08-25T03:44:17.108Z,94.65
2016-08-25T03:45:17.101Z,94.65
2016-08-25T03:46:17.101Z,94.74
2016-08-25T03:47:18.615Z,94.55
2016-08-25T03:49:17.495Z,94.55
2016-08-25T03:50:17.630Z,94.17
2016-08-25T03:51:17.082Z,94.17
2016-08-25T03:52:17.077Z,94.17
2016-08-25T03:53:17.077Z,94.26
2016-08-25T03:54:17.068Z,94.17
2016-08-25T03:55:17.062Z,94.46
2016-08-25T03:56:17.058Z,94.26
2016-08-25T03:57:18.497Z,94.46
2016-08-25T03:58:17.136Z,94.65
2016-08-25T03:59:17.705Z,94.46
2016-08-25T04:00:17.938Z,94.26
2016-08-25T04:01:17.043Z,94.17
2016-08-25T04:02:17.402Z,94.26
2016-08-25T04:03:17.144Z,94.26
2016-08-25T04:04:17.028Z,94.07
2016-08-25T04:05:17.025Z,94.17
2016-08-25T04:06:17.021Z,94.26
2016-08-25T04:07:17.019Z,94.26
2016-08-25T04:08:17.015Z,94.17
2016-08-25T04:09:17.010Z,94.07
2016-08-25T04:10:17.008Z,94.17
2016-08-25T04:11:17.006Z,94.07
2016-08-25T04:12:17.000Z,94.26
2016-08-25T04:13:16.993Z,94.17
2016-08-25T04:14:16.992Z,94.17
2016-08-25T04:15:16.985Z,94.17
2016-08-25T04:16:16.983Z,94.36
2016-08-25T04:17:16.982Z,94.36
2016-08-25T04:18:16.978Z,94.17
2016-08-25T04:19:16.970Z,94.36
2016-08-25T04:20:16.969Z,94.55
2016-08-25T04:21:16.965Z,94.55
2016-08-25T04:22:16.957Z,94.46
2016-08-25T04:23:16.957Z,94.17
2016-08-25T04:24:16.951Z,93.98
2016-08-25T04:25:16.945Z,94.5
2016-08-25T04:26:16.941Z,94.02
2016-08-25T04:27:16.938Z,94.02
2016-08-25T04:28:17.082Z,94.31
2016-08-25T04:29:17.329Z,94.12
2016-08-25T04:30:17.030Z,94.07
2016-08-25T04:31:16.923Z,93.69
2016-08-25T04:32:16.922Z,93.3
2016-08-25T04:33:16.919Z,93.12
2016-08-25T04:34:17.515Z,93.35
2016-08-25T04:35:16.911Z,92.97
2016-08-25T04:36:17.559Z,92.49
2016-08-25T04:37:16.910Z,92.35
2016-08-25T04:38:17.103Z,91.58
2016-08-25T04:39:17.000Z,91.24
2016-08-25T04:40:16.895Z,90.95
2016-08-25T04:41:16.891Z,90.67
2016-08-25T04:42:17.583Z,90.33
2016-08-25T04:43:16.883Z,89.85
2016-08-25T04:44:16.884Z,89.61
2016-08-25T04:45:16.885Z,88.26
2016-08-25T04:46:16.881Z,88.31
2016-08-25T04:47:17.579Z,87.54
2016-08-25T04:48:16.882Z,87.01
2016-08-25T04:49:16.875Z,86.33
2016-08-25T04:50:16.877Z,85.61
2016-08-25T04:51:16.875Z,84.84
2016-08-25T04:52:16.875Z,84.69
2016-08-25T04:53:16.875Z,84.34
2016-08-25T04:54:16.871Z,83.19
2016-08-25T04:55:16.869Z,82.27
2016-08-25T04:56:16.874Z,81.5
2016-08-25T04:57:16.867Z,80.48
2016-08-25T04:58:16.870Z,80.29
2016-08-25T04:59:16.881Z,79.27
2016-08-25T05:00:16.873Z,78.59
2016-08-25T05:01:16.872Z,77.96
2016-08-25T05:02:16.875Z,76.9
2016-08-25T05:03:16.873Z,75.97
2016-08-25T05:04:16.882Z,75.49
2016-08-25T05:06:17.964Z,74.27
2016-08-25T05:07:17.019Z,74.02
2016-08-25T05:08:17.959Z,73.35
2016-08-25T05:09:16.890Z,72.52
2016-08-25T05:10:17.437Z,71.94
2016-08-25T05:11:16.893Z,71.1
2016-08-25T05:12:16.898Z,69.59
2016-08-25T05:13:16.900Z,69.2
2016-08-25T05:14:16.909Z,69.14
2016-08-25T05:15:16.911Z,67.98
2016-08-25T05:16:16.911Z,67.14
2016-08-25T05:17:16.919Z,66.37
2016-08-25T05:18:17.312Z,65.63
2016-08-25T05:19:16.930Z,64.95
2016-08-25T05:20:16.939Z,64.3
2016-08-25T05:21:16.936Z,63.92
2016-08-25T05:22:16.947Z,63.07
2016-08-25T05:23:16.954Z,62.01
2016-08-25T05:24:16.963Z,61.72
2016-08-25T05:25:16.965Z,61.17
2016-08-25T05:26:16.965Z,60.49
2016-08-25T05:27:16.974Z,59.71
2016-08-25T05:28:16.981Z,59.26
2016-08-25T05:29:16.984Z,59.06
2016-08-25T05:30:16.991Z,58.51
2016-08-25T05:31:17.001Z,58.22
2016-08-25T05:32:17.007Z,57.34
2016-08-25T05:33:17.012Z,56.89
2016-08-25T05:34:17.017Z,56.89
2016-08-25T05:35:17.037Z,56.5
2016-08-25T05:36:17.029Z,56.04
2016-08-25T05:37:17.045Z,55.33
2016-08-25T05:38:17.050Z,54.97
2016-08-25T05:39:17.059Z,54.71
2016-08-25T05:40:17.064Z,53.54
2016-08-25T05:41:17.070Z,53.54
2016-08-25T05:42:17.087Z,52.69
2016-08-25T05:43:17.083Z,52.4
2016-08-25T05:44:17.112Z,52.21
2016-08-25T05:45:17.405Z,51.92
2016-08-25T05:46:17.361Z,51.94
2016-08-25T05:47:17.122Z,50.87
2016-08-25T05:48:17.135Z,50.68
2016-08-25T05:49:17.139Z,49.92
2016-08-25T05:50:17.149Z,49.83
2016-08-25T05:51:17.152Z,49.63
2016-08-25T05:52:17.471Z,49.17
2016-08-25T05:53:17.171Z,48.68
2016-08-25T05:54:17.182Z,48.39
2016-08-25T05:55:17.642Z,48.32
2016-08-25T05:56:17.195Z,48.05
2016-08-25T05:57:17.209Z,47.85
2016-08-25T05:58:17.219Z,47.17
2016-08-25T05:59:17.225Z,47.19
2016-08-25T06:00:17.239Z,47
2016-08-25T06:01:17.246Z,46.41
2016-08-25T06:02:17.253Z,46.14
2016-08-25T06:03:18.073Z,45.65
2016-08-25T06:04:17.273Z,45.46
2016-08-25T06:05:17.284Z,44.87
2016-08-25T06:06:17.295Z,44.48
2016-08-25T06:07:17.305Z,44.12
2016-08-25T06:08:17.314Z,43.82
2016-08-25T06:09:17.331Z,43.04
2016-08-25T06:10:17.332Z,43.24
2016-08-25T06:11:17.340Z,43.04
2016-08-25T06:12:17.352Z,42.87
2016-08-25T06:13:17.364Z,42.68
2016-08-25T06:14:17.374Z,42.19
2016-08-25T06:15:17.388Z,42.11
2016-08-25T06:16:17.401Z,41.74
2016-08-25T06:17:17.407Z,41.35
2016-08-25T06:18:17.420Z,41.54
2016-08-25T06:19:17.430Z,41.25
2016-08-25T06:20:17.437Z,40.66
2016-08-25T06:21:17.449Z,41.17
2016-08-25T06:22:17.465Z,40.68
2016-08-25T06:23:17.476Z,40.58
2016-08-25T06:24:19.303Z,40.39
2016-08-25T06:25:18.793Z,40.39
2016-08-25T06:26:17.508Z,40
2016-08-25T06:27:18.004Z,39.62
2016-08-25T06:28:17.724Z,39.53
2016-08-25T06:29:17.544Z,39.33
2016-08-25T06:30:17.548Z,38.86
2016-08-25T06:31:17.562Z,38.57
2016-08-25T06:32:17.584Z,38.65
2016-08-25T06:33:19.105Z,38.75
2016-08-25T06:34:19.183Z,38.47
2016-08-25T06:35:19.040Z,38.18
2016-08-25T06:36:17.631Z,37.98
2016-08-25T06:37:17.639Z,37.98
2016-08-25T06:38:17.651Z,38.1
2016-08-25T06:39:17.676Z,37.71
2016-08-25T06:40:17.675Z,37.69
2016-08-25T06:41:17.701Z,37.59
2016-08-25T06:42:17.691Z,37.88
2016-08-25T06:43:17.718Z,37.69
2016-08-25T06:44:17.736Z,37.49
2016-08-25T06:45:17.743Z,37
2016-08-25T06:46:17.763Z,37.1
2016-08-25T06:47:17.773Z,37.08
2016-08-25T06:48:17.798Z,37.19
2016-08-25T06:49:17.807Z,36.32
2016-08-25T06:50:17.811Z,36.41
2016-08-25T06:51:17.825Z,36.8
2016-08-25T06:52:17.826Z,36.41
2016-08-25T06:53:17.845Z,36.71
2016-08-25T06:54:17.848Z,36.61
2016-08-25T06:55:17.858Z,36.43
2016-08-25T06:56:17.872Z,36.32
2016-08-25T06:57:17.874Z,36.14
2016-08-25T06:58:17.895Z,35.35
2016-08-25T06:59:17.901Z,35.55
2016-08-25T07:00:17.924Z,35.73
2016-08-25T07:01:17.941Z,35.71
2016-08-25T07:02:18.542Z,35.83
2016-08-25T07:03:17.952Z,35.73
2016-08-25T07:04:18.067Z,35.13
2016-08-25T07:05:17.997Z,35.13
2016-08-25T07:06:17.985Z,35.71
2016-08-25T07:07:18.012Z,35.81
2016-08-25T07:08:18.013Z,35.32
2016-08-25T07:09:18.025Z,35.13
2016-08-25T07:10:18.040Z,35.42
2016-08-25T07:11:18.365Z,35.42
2016-08-25T07:12:18.814Z,35.42
2016-08-25T07:13:18.833Z,35.42
2016-08-25T07:14:18.101Z,35.42
2016-08-25T07:15:18.108Z,35.42
2016-08-25T07:16:18.114Z,35.34
2016-08-25T07:17:18.145Z,35.44
2016-08-25T07:18:18.146Z,35.44
2016-08-25T07:19:18.163Z,35.44
2016-08-25T07:20:18.167Z,35.34
2016-08-25T07:21:18.178Z,35.44
2016-08-25T07:22:18.190Z,34.94
2016-08-25T07:23:18.201Z,35.24
2016-08-25T07:24:18.216Z,35.44
2016-08-25T07:25:18.245Z,35.32
2016-08-25T07:26:18.243Z,35.03
2016-08-25T07:27:18.257Z,35.81
2016-08-25T07:28:18.268Z,36
2016-08-25T07:29:18.288Z,35.81
2016-08-25T07:30:18.289Z,36.4
2016-08-25T07:31:18.302Z,36.3
2016-08-25T07:32:18.318Z,36.28
2016-08-25T07:33:18.327Z,36.38
2016-08-25T07:34:18.338Z,36.87
2016-08-25T07:35:18.357Z,36.67
2016-08-25T07:36:18.369Z,36.28
2016-08-25T07:37:18.377Z,36.38
2016-08-25T07:38:18.408Z,36.38
2016-08-25T07:39:18.408Z,36.75
2016-08-25T07:40:18.418Z,36.47
2016-08-25T07:41:18.433Z,36.47
2016-08-25T07:42:19.141Z,36.36
2016-08-25T07:43:19.993Z,36.75
2016-08-25T07:44:18.479Z,37.04
2016-08-25T07:45:19.107Z,37.02
2016-08-25T07:46:18.507Z,37.41
2016-08-25T07:47:19.170Z,37.71
2016-08-25T07:48:18.529Z,37.62
2016-08-25T07:49:18.531Z,37.52
2016-08-25T07:50:18.555Z,37.5
2016-08-25T07:51:18.555Z,37.99
2016-08-25T07:52:18.929Z,37.71
2016-08-25T07:53:19.651Z,37.91
2016-08-25T07:54:18.667Z,38.01
2016-08-25T07:55:19.460Z,37.71
2016-08-25T07:56:19.213Z,38.01
2016-08-25T07:57:18.638Z,37.79
2016-08-25T07:58:18.644Z,38.18
2016-08-25T07:59:18.657Z,38.28
2016-08-25T08:00:18.671Z,38.18
2016-08-25T08:01:18.701Z,38.09
2016-08-25T08:02:18.700Z,38.06
2016-08-25T08:03:18.718Z,38.06
2016-08-25T08:04:18.723Z,38.35
2016-08-25T08:05:18.734Z,38.73
2016-08-25T08:06:18.748Z,38.82
2016-08-25T08:07:18.768Z,39.02
2016-08-25T08:08:18.776Z,39.12
2016-08-25T08:09:18.785Z,39.31
2016-08-25T08:10:18.800Z,39.31
2016-08-25T08:11:18.823Z,39.51
2016-08-25T08:12:18.826Z,39.51
2016-08-25T08:13:18.834Z,40.19
2016-08-25T08:14:18.850Z,40.56
2016-08-25T08:15:18.882Z,40.86
2016-08-25T08:16:18.877Z,40.93
2016-08-25T08:17:18.887Z,41.13
2016-08-25T08:18:18.901Z,40.73
2016-08-25T08:19:18.918Z,41.03
2016-08-25T08:20:19.625Z,40.93
2016-08-25T08:21:18.937Z,41.2
2016-08-25T08:22:18.961Z,41.3
2016-08-25T08:23:19.061Z,41.6
2016-08-25T08:24:18.978Z,41.6
2016-08-25T08:25:18.990Z,41.6
2016-08-25T08:26:19.015Z,42.06
2016-08-25T08:27:19.011Z,42.06
2016-08-25T08:28:19.023Z,42.25
2016-08-25T08:29:19.991Z,42.45
2016-08-25T08:30:19.052Z,42.33
2016-08-25T08:31:19.075Z,42.82
2016-08-25T08:32:19.726Z,43.29
2016-08-25T08:33:19.098Z,43.38
2016-08-25T08:34:19.100Z,44.04
2016-08-25T08:35:19.117Z,44.33
2016-08-25T08:36:19.808Z,44.79
2016-08-25T08:37:19.133Z,45.17
2016-08-25T08:38:19.152Z,45.94
2016-08-25T08:39:19.163Z,46.62
2016-08-25T08:40:19.163Z,46.98
2016-08-25T08:41:19.166Z,47.08
2016-08-25T08:42:19.174Z,47.64
2016-08-25T08:43:19.200Z,47.83
2016-08-25T08:44:19.188Z,48.42
2016-08-25T08:45:19.197Z,48.39
2016-08-25T08:46:19.205Z,48.59
2016-08-25T08:47:19.231Z,48.97
2016-08-25T08:48:19.222Z,49.66
2016-08-25T08:49:19.246Z,49.54
2016-08-25T08:50:19.240Z,49.73
2016-08-25T08:51:19.246Z,50.21
2016-08-25T08:52:19.261Z,50.5
2016-08-25T08:53:19.263Z,50.41
2016-08-25T08:54:19.266Z,50.57
2016-08-25T08:55:19.270Z,50.77
2016-08-25T08:56:19.288Z,51.06
2016-08-25T08:57:19.277Z,51.25
2016-08-25T08:58:19.284Z,51.45
2016-08-25T08:59:19.291Z,51.64
2016-08-25T09:00:19.648Z,51.81
2016-08-25T09:01:20.854Z,52
2016-08-25T09:02:19.305Z,52.1
2016-08-25T09:03:19.309Z,52.39
2016-08-25T09:04:19.321Z,51.9
2016-08-25T09:05:19.321Z,52.39
2016-08-25T09:06:19.324Z,52.29
2016-08-25T09:07:19.487Z,52.2
2016-08-25T09:08:19.334Z,52.49
2016-08-25T09:09:19.348Z,52.29
2016-08-25T09:10:20.630Z,52.49
2016-08-25T09:11:19.348Z,52.39
2016-08-25T09:12:20.409Z,52.49
2016-08-25T09:13:19.362Z,52.29
2016-08-25T09:14:19.360Z,52.39
2016-08-25T09:15:19.363Z,52.29
2016-08-25T09:16:19.370Z,52.68
2016-08-25T09:17:19.374Z,52.49
2016-08-25T09:18:19.376Z,52.68
2016-08-25T09:19:19.384Z,52.39
2016-08-25T09:20:19.406Z,52.49
2016-08-25T09:21:19.393Z,52.29
2016-08-25T09:22:19.397Z,52.2
2016-08-25T09:23:19.403Z,52.39
2016-08-25T09:24:19.398Z,52.29
2016-08-25T09:25:19.423Z,52.58
2016-08-25T09:26:19.410Z,52.29
2016-08-25T09:27:19.425Z,52.58
2016-08-25T09:28:19.431Z,52.1
2016-08-25T09:29:19.419Z,52
2016-08-25T09:30:19.423Z,52.2
2016-08-25T09:31:19.439Z,51.9
2016-08-25T09:32:19.429Z,51.9
2016-08-25T09:33:19.440Z,52.1
2016-08-25T09:34:19.445Z,52.49
2016-08-25T09:35:19.440Z,52.2
2016-08-25T09:36:19.467Z,51.9
2016-08-25T09:37:19.608Z,52.2
2016-08-25T09:38:20.159Z,52.29
2016-08-25T09:39:20.111Z,52.29
2016-08-25T09:40:20.171Z,52.2
2016-08-25T09:42:19.468Z,52.29
2016-08-25T09:43:19.492Z,52.03
2016-08-25T09:44:19.496Z,51.74
2016-08-25T09:45:19.499Z,51.93
2016-08-25T09:46:19.489Z,51.64
2016-08-25T09:47:19.547Z,51.64
2016-08-25T09:48:19.545Z,51.54
2016-08-25T09:49:19.514Z,51.64
2016-08-25T09:50:19.519Z,51.54
2016-08-25T09:51:19.507Z,51.64
2016-08-25T09:52:19.776Z,51.93
2016-08-25T09:53:19.521Z,51.74
2016-08-25T09:54:19.516Z,51.54
2016-08-25T09:55:20.240Z,51.54
2016-08-25T09:56:19.524Z,51.06
2016-08-25T09:57:19.532Z,51.45
2016-08-25T09:58:19.535Z,51.54
2016-08-25T09:59:19.553Z,51.45
2016-08-25T10:00:19.559Z,51.64
2016-08-25T10:01:19.543Z,51.57
2016-08-25T10:02:19.551Z,51.57
2016-08-25T10:03:19.554Z,51.57
2016-08-25T10:04:19.552Z,51.47
2016-08-25T10:05:19.559Z,51.47
2016-08-25T10:06:19.566Z,51.28
2016-08-25T10:07:19.584Z,50.89
2016-08-25T10:08:19.569Z,50.89
2016-08-25T10:09:19.580Z,50.99
2016-08-25T10:10:19.583Z,50.82
2016-08-25T10:11:19.598Z,50.43
2016-08-25T10:12:19.588Z,50.72
2016-08-25T10:13:19.589Z,50.62
2016-08-25T10:14:19.593Z,49.95
2016-08-25T10:15:19.609Z,49.75
2016-08-25T10:16:19.628Z,49.56
2016-08-25T10:17:19.610Z,49.07
2016-08-25T10:18:20.311Z,48.97
2016-08-25T10:19:19.889Z,48.78
2016-08-25T10:20:19.682Z,48.88
2016-08-25T10:21:19.636Z,48.88
2016-08-25T10:22:19.635Z,48.97
2016-08-25T10:23:19.641Z,49.07
2016-08-25T10:24:19.649Z,48.97
2016-08-25T10:25:19.665Z,49.07
2016-08-25T10:26:19.670Z,48.97
2016-08-25T10:27:19.661Z,49.07
2016-08-25T10:28:20.932Z,48.8
2016-08-25T10:29:19.660Z,48.52
2016-08-25T10:30:19.663Z,48.52
2016-08-25T10:31:20.656Z,48.61
2016-08-25T10:32:19.693Z,48.52
2016-08-25T10:33:19.684Z,48.42
2016-08-25T10:34:19.682Z,48.9
2016-08-25T10:35:19.692Z,48.71
2016-08-25T10:36:19.696Z,48.8
2016-08-25T10:37:19.702Z,48.71
2016-08-25T10:38:20.395Z,48.42
2016-08-25T10:39:19.731Z,48.22
2016-08-25T10:40:19.729Z,48.22
2016-08-25T10:41:19.717Z,47.74
2016-08-25T10:42:19.723Z,47.83
2016-08-25T10:43:19.723Z,47.64
2016-08-25T10:44:19.733Z,47.38
2016-08-25T10:45:19.734Z,46.98
2016-08-25T10:46:19.754Z,46.89
2016-08-25T10:47:19.743Z,46.89
2016-08-25T10:48:19.750Z,46.98
2016-08-25T10:49:19.752Z,46.98
2016-08-25T10:50:19.763Z,47.08
2016-08-25T10:51:19.766Z,46.89
2016-08-25T10:52:19.762Z,46.79
2016-08-25T10:53:19.770Z,46.79
2016-08-25T10:54:19.777Z,46.5
2016-08-25T10:55:20.946Z,46.6
2016-08-25T10:56:20.632Z,46.01
2016-08-25T10:57:20.239Z,46.21
2016-08-25T10:59:20.001Z,46.31
2016-08-25T11:00:19.812Z,46.31
2016-08-25T11:01:19.810Z,46.5
2016-08-25T11:02:19.811Z,45.82
2016-08-25T11:03:19.817Z,45.04
2016-08-25T11:04:34.739Z,44.56
2016-08-25T11:05:20.977Z,44.27
2016-08-25T11:06:20.187Z,43.98
2016-08-25T11:07:19.834Z,43.3
2016-08-25T11:08:20.061Z,43.4
2016-08-25T11:09:20.014Z,43.01
2016-08-25T11:10:19.858Z,42.74
2016-08-25T11:11:19.857Z,43.32
2016-08-25T11:12:19.935Z,43.32
2016-08-25T11:13:19.870Z,43.9
2016-08-25T11:14:19.881Z,43.71
2016-08-25T11:15:19.878Z,43.71
2016-08-25T11:16:19.879Z,43.51
2016-08-25T11:17:19.882Z,43.9
2016-08-25T11:18:19.894Z,43.8
2016-08-25T11:19:19.893Z,44
2016-08-25T11:20:19.903Z,43.51
2016-08-25T11:21:19.903Z,43.71
2016-08-25T11:22:19.914Z,43.12
2016-08-25T11:23:19.914Z,42.93
2016-08-25T11:24:19.930Z,42.83
2016-08-25T11:25:19.939Z,42.83
2016-08-25T11:26:19.938Z,42.83
2016-08-25T11:27:19.932Z,42.83
2016-08-25T11:28:19.941Z,42.74
2016-08-25T11:29:19.953Z,42.83
2016-08-25T11:30:19.951Z,43.12
2016-08-25T11:31:19.959Z,43.12
2016-08-25T11:32:19.959Z,43.24
2016-08-25T11:33:19.966Z,42.74
2016-08-25T11:34:19.968Z,42.76
2016-08-25T11:35:19.982Z,42.95
2016-08-25T11:36:20.711Z,42.85
2016-08-25T11:37:20.716Z,43.15
2016-08-25T11:38:20.990Z,42.66
2016-08-25T11:39:21.009Z,42.18
2016-08-25T11:40:20.660Z,41.49
2016-08-25T11:41:20.015Z,41.59
2016-08-25T11:42:20.012Z,41.49
2016-08-25T11:43:20.014Z,41.39
2016-08-25T11:44:20.020Z,41.39
2016-08-25T11:45:20.027Z,41.3
2016-08-25T11:46:21.549Z,41.39
2016-08-25T11:47:20.356Z,41.49
2016-08-25T11:48:20.745Z,41.59
2016-08-25T11:49:20.607Z,41.88
2016-08-25T11:50:20.053Z,41.78
2016-08-25T11:51:20.065Z,41.98
2016-08-25T11:52:20.059Z,41.88
2016-08-25T11:53:20.063Z,41.69
2016-08-25T11:54:20.073Z,41.3
2016-08-25T11:55:20.074Z,41.49
2016-08-25T11:56:20.084Z,41.49
2016-08-25T11:57:20.105Z,41.3
2016-08-25T11:58:20.789Z,41.2
2016-08-25T11:59:20.107Z,41.3
2016-08-25T12:00:20.111Z,41.01
2016-08-25T12:01:20.105Z,41.39
2016-08-25T12:02:20.112Z,41.01
2016-08-25T12:03:20.136Z,40.81
2016-08-25T12:04:20.132Z,41.2
2016-08-25T12:05:20.139Z,41.22
2016-08-25T12:06:20.132Z,41.49
2016-08-25T12:07:20.156Z,41.49
2016-08-25T12:08:20.147Z,41.3
2016-08-25T12:09:20.152Z,41.1
2016-08-25T12:10:20.154Z,41.3
2016-08-25T12:11:20.174Z,41.3
2016-08-25T12:12:20.165Z,41.22
2016-08-25T12:13:35.093Z,41.61
2016-08-25T12:14:20.177Z,41.22
2016-08-25T12:15:20.183Z,41.32
2016-08-25T12:16:20.198Z,41.51
2016-08-25T12:17:20.193Z,41.32
2016-08-25T12:18:20.207Z,41.51
2016-08-25T12:19:20.662Z,41.51
2016-08-25T12:20:20.229Z,41.22
2016-08-25T12:21:20.208Z,41.32
2016-08-25T12:22:20.229Z,40.73
2016-08-25T12:23:20.224Z,40.73
2016-08-25T12:24:20.237Z,40.64
2016-08-25T12:25:20.231Z,40.73
2016-08-25T12:26:20.636Z,41.03
2016-08-25T12:27:20.260Z,41.32
2016-08-25T12:28:20.250Z,41.61
2016-08-25T12:29:20.251Z,41.42
2016-08-25T12:30:20.267Z,41.61
2016-08-25T12:31:20.262Z,41.42
2016-08-25T12:32:20.267Z,41.22
2016-08-25T12:33:20.275Z,40.44
2016-08-25T12:34:20.996Z,40.83
2016-08-25T12:35:20.293Z,40.83
2016-08-25T12:36:20.295Z,40.44
2016-08-25T12:37:20.296Z,40.44
2016-08-25T12:38:21.024Z,40.85
2016-08-25T12:39:20.303Z,40.47
2016-08-25T12:40:20.335Z,40.37
2016-08-25T12:41:20.319Z,40.44
2016-08-25T12:42:20.334Z,40.15
2016-08-25T12:43:20.337Z,40.08
2016-08-25T12:44:20.350Z,40.17
2016-08-25T12:45:20.337Z,39.76
2016-08-25T12:46:20.346Z,39.78
2016-08-25T12:47:20.364Z,40.06
2016-08-25T12:48:20.358Z,40.44
2016-08-25T12:49:20.375Z,40.47
2016-08-25T12:50:20.365Z,40.17
2016-08-25T12:51:20.382Z,40.08
2016-08-25T12:52:20.374Z,39.29
2016-08-25T12:53:20.399Z,39.59
2016-08-25T12:54:21.306Z,40.17
2016-08-25T12:55:21.818Z,40.27
2016-08-25T12:56:20.404Z,40.37
2016-08-25T12:57:20.664Z,40.66
2016-08-25T12:58:20.406Z,40.47
2016-08-25T12:59:20.412Z,40.17
2016-08-25T13:00:20.417Z,40.08
2016-08-25T13:01:20.433Z,40.17
2016-08-25T13:02:20.427Z,39.59
2016-08-25T13:03:20.433Z,39.49